sensor_id;sensor_type;location;lat;lon;timestamp;P1;durP1;ratioP1;P2;durP2;ratioP2
79697;SDS011;69168;42.708;23.286;2023-12-22T00:01:13;32.88;;;17.20;;
79697;SDS011;69168;42.708;23.286;2023-12-22T00:03:44;35.97;;;15.88;;
79697;SDS011;69168;42.708;23.286;2023-12-22T00:06:15;31.73;;;15.57;;
79697;SDS011;69168;42.708;23.286;2023-12-22T00:08:40;31.30;;;15.80;;
79697;SDS011;69168;42.708;23.286;2023-12-22T00:11:06;26.52;;;14.57;;
79697;SDS011;69168;42.708;23.286;2023-12-22T00:13:32;33.65;;;15.23;;
79697;SDS011;69168;42.708;23.286;2023-12-22T00:15:58;27.45;;;14.65;;
79697;SDS011;69168;42.708;23.286;2023-12-22T00:18:25;30.35;;;15.60;;
79697;SDS011;69168;42.708;23.286;2023-12-22T00:20:51;31.77;;;15.20;;
79697;SDS011;69168;42.708;23.286;2023-12-22T00:23:16;26.10;;;14.18;;
79697;SDS011;69168;42.708;23.286;2023-12-22T00:25:42;27.25;;;14.60;;
79697;SDS011;69168;42.708;23.286;2023-12-22T00:28:07;29.05;;;14.85;;
79697;SDS011;69168;42.708;23.286;2023-12-22T00:30:33;31.20;;;15.25;;
79697;SDS011;69168;42.708;23.286;2023-12-22T00:32:59;31.83;;;16.08;;
79697;SDS011;69168;42.708;23.286;2023-12-22T00:35:24;30.67;;;15.32;;
79697;SDS011;69168;42.708;23.286;2023-12-22T00:37:50;26.00;;;15.35;;
79697;SDS011;69168;42.708;23.286;2023-12-22T00:40:15;26.83;;;14.80;;
79697;SDS011;69168;42.708;23.286;2023-12-22T00:42:41;32.13;;;16.42;;
79697;SDS011;69168;42.708;23.286;2023-12-22T00:45:06;26.83;;;13.73;;
79697;SDS011;69168;42.708;23.286;2023-12-22T00:47:32;32.63;;;15.68;;
79697;SDS011;69168;42.708;23.286;2023-12-22T00:50:00;24.02;;;13.98;;
79697;SDS011;69168;42.708;23.286;2023-12-22T00:52:27;33.03;;;16.27;;
79697;SDS011;69168;42.708;23.286;2023-12-22T00:54:52;37.53;;;17.58;;
79697;SDS011;69168;42.708;23.286;2023-12-22T00:57:18;35.55;;;18.85;;
79697;SDS011;69168;42.708;23.286;2023-12-22T00:59:44;26.38;;;16.27;;
79697;SDS011;69168;42.708;23.286;2023-12-22T01:02:15;29.02;;;14.82;;
79697;SDS011;69168;42.708;23.286;2023-12-22T01:04:41;27.95;;;14.23;;
79697;SDS011;69168;42.708;23.286;2023-12-22T01:07:07;27.52;;;14.27;;
79697;SDS011;69168;42.708;23.286;2023-12-22T01:09:33;25.00;;;13.18;;
79697;SDS011;69168;42.708;23.286;2023-12-22T01:11:59;28.52;;;13.63;;
79697;SDS011;69168;42.708;23.286;2023-12-22T01:14:28;28.45;;;14.48;;
79697;SDS011;69168;42.708;23.286;2023-12-22T01:16:53;30.17;;;14.20;;
79697;SDS011;69168;42.708;23.286;2023-12-22T01:19:19;29.33;;;16.08;;
79697;SDS011;69168;42.708;23.286;2023-12-22T01:21:45;33.53;;;15.77;;
79697;SDS011;69168;42.708;23.286;2023-12-22T01:24:11;31.40;;;15.43;;
79697;SDS011;69168;42.708;23.286;2023-12-22T01:26:36;30.58;;;15.88;;
79697;SDS011;69168;42.708;23.286;2023-12-22T01:29:02;34.30;;;16.48;;
79697;SDS011;69168;42.708;23.286;2023-12-22T01:31:27;38.38;;;18.08;;
79697;SDS011;69168;42.708;23.286;2023-12-22T01:33:53;33.67;;;16.15;;
79697;SDS011;69168;42.708;23.286;2023-12-22T01:36:18;35.13;;;17.50;;
79697;SDS011;69168;42.708;23.286;2023-12-22T01:38:44;32.95;;;17.50;;
79697;SDS011;69168;42.708;23.286;2023-12-22T01:41:09;35.75;;;17.40;;
79697;SDS011;69168;42.708;23.286;2023-12-22T01:43:35;38.28;;;20.15;;
79697;SDS011;69168;42.708;23.286;2023-12-22T01:46:00;45.95;;;20.20;;
79697;SDS011;69168;42.708;23.286;2023-12-22T01:48:27;42.65;;;18.95;;
79697;SDS011;69168;42.708;23.286;2023-12-22T01:50:53;41.25;;;19.02;;
79697;SDS011;69168;42.708;23.286;2023-12-22T01:53:21;36.50;;;16.73;;
79697;SDS011;69168;42.708;23.286;2023-12-22T01:55:48;38.08;;;19.73;;
79697;SDS011;69168;42.708;23.286;2023-12-22T01:58:16;40.05;;;17.73;;
79697;SDS011;69168;42.708;23.286;2023-12-22T02:00:43;38.42;;;17.17;;
79697;SDS011;69168;42.708;23.286;2023-12-22T02:03:08;38.75;;;17.70;;
79697;SDS011;69168;42.708;23.286;2023-12-22T02:05:34;36.67;;;19.58;;
79697;SDS011;69168;42.708;23.286;2023-12-22T02:08:00;38.25;;;17.58;;
79697;SDS011;69168;42.708;23.286;2023-12-22T02:10:25;40.92;;;18.75;;
79697;SDS011;69168;42.708;23.286;2023-12-22T02:12:51;36.85;;;17.25;;
79697;SDS011;69168;42.708;23.286;2023-12-22T02:15:17;37.17;;;18.42;;
79697;SDS011;69168;42.708;23.286;2023-12-22T02:20:12;41.88;;;19.27;;
79697;SDS011;69168;42.708;23.286;2023-12-22T02:22:38;34.35;;;17.25;;
79697;SDS011;69168;42.708;23.286;2023-12-22T02:25:03;32.33;;;17.50;;
79697;SDS011;69168;42.708;23.286;2023-12-22T02:27:45;28.63;;;15.27;;
79697;SDS011;69168;42.708;23.286;2023-12-22T02:30:14;33.15;;;16.45;;
79697;SDS011;69168;42.708;23.286;2023-12-22T02:35:19;25.08;;;12.93;;
79697;SDS011;69168;42.708;23.286;2023-12-22T02:37:47;27.38;;;12.70;;
79697;SDS011;69168;42.708;23.286;2023-12-22T02:40:13;26.90;;;13.57;;
79697;SDS011;69168;42.708;23.286;2023-12-22T02:42:40;28.75;;;14.43;;
79697;SDS011;69168;42.708;23.286;2023-12-22T02:45:06;30.70;;;14.82;;
79697;SDS011;69168;42.708;23.286;2023-12-22T02:47:39;36.75;;;19.80;;
79697;SDS011;69168;42.708;23.286;2023-12-22T02:50:05;34.95;;;18.27;;
79697;SDS011;69168;42.708;23.286;2023-12-22T02:52:31;37.38;;;18.90;;
79697;SDS011;69168;42.708;23.286;2023-12-22T02:54:57;40.15;;;18.40;;
79697;SDS011;69168;42.708;23.286;2023-12-22T02:57:23;33.03;;;16.92;;
79697;SDS011;69168;42.708;23.286;2023-12-22T02:59:48;33.83;;;17.48;;
79697;SDS011;69168;42.708;23.286;2023-12-22T03:02:14;35.72;;;17.67;;
79697;SDS011;69168;42.708;23.286;2023-12-22T03:04:39;34.65;;;16.35;;
79697;SDS011;69168;42.708;23.286;2023-12-22T03:07:05;31.02;;;15.60;;
79697;SDS011;69168;42.708;23.286;2023-12-22T03:09:31;31.13;;;16.80;;
79697;SDS011;69168;42.708;23.286;2023-12-22T03:11:57;34.55;;;17.63;;
79697;SDS011;69168;42.708;23.286;2023-12-22T03:14:28;34.53;;;18.17;;
79697;SDS011;69168;42.708;23.286;2023-12-22T03:16:55;37.05;;;18.27;;
79697;SDS011;69168;42.708;23.286;2023-12-22T03:19:21;37.95;;;17.42;;
79697;SDS011;69168;42.708;23.286;2023-12-22T03:21:47;37.53;;;18.75;;
79697;SDS011;69168;42.708;23.286;2023-12-22T03:24:13;36.72;;;19.35;;
79697;SDS011;69168;42.708;23.286;2023-12-22T03:26:39;39.42;;;20.40;;
79697;SDS011;69168;42.708;23.286;2023-12-22T03:29:04;35.13;;;19.70;;
79697;SDS011;69168;42.708;23.286;2023-12-22T03:31:30;37.47;;;20.02;;
79697;SDS011;69168;42.708;23.286;2023-12-22T03:33:56;39.28;;;20.00;;
79697;SDS011;69168;42.708;23.286;2023-12-22T03:36:21;41.50;;;18.77;;
79697;SDS011;69168;42.708;23.286;2023-12-22T03:38:47;38.15;;;18.80;;
79697;SDS011;69168;42.708;23.286;2023-12-22T03:41:12;32.70;;;16.98;;
79697;SDS011;69168;42.708;23.286;2023-12-22T03:43:38;32.65;;;17.88;;
79697;SDS011;69168;42.708;23.286;2023-12-22T03:46:03;33.25;;;17.98;;
79697;SDS011;69168;42.708;23.286;2023-12-22T03:48:29;33.35;;;17.67;;
79697;SDS011;69168;42.708;23.286;2023-12-22T03:50:54;33.50;;;16.90;;
79697;SDS011;69168;42.708;23.286;2023-12-22T03:53:20;33.97;;;17.25;;
79697;SDS011;69168;42.708;23.286;2023-12-22T03:55:45;33.05;;;18.50;;
79697;SDS011;69168;42.708;23.286;2023-12-22T03:58:11;34.33;;;17.40;;
79697;SDS011;69168;42.708;23.286;2023-12-22T04:00:37;32.58;;;17.70;;
79697;SDS011;69168;42.708;23.286;2023-12-22T04:03:02;36.28;;;17.88;;
79697;SDS011;69168;42.708;23.286;2023-12-22T04:05:28;33.30;;;16.42;;
79697;SDS011;69168;42.708;23.286;2023-12-22T04:07:54;30.60;;;17.95;;
79697;SDS011;69168;42.708;23.286;2023-12-22T04:10:20;33.85;;;17.38;;
79697;SDS011;69168;42.708;23.286;2023-12-22T04:12:46;32.35;;;16.23;;
79697;SDS011;69168;42.708;23.286;2023-12-22T04:15:11;29.02;;;15.13;;
79697;SDS011;69168;42.708;23.286;2023-12-22T04:17:38;42.72;;;18.90;;
79697;SDS011;69168;42.708;23.286;2023-12-22T04:20:04;32.00;;;17.60;;
79697;SDS011;69168;42.708;23.286;2023-12-22T04:22:30;36.47;;;18.90;;
79697;SDS011;69168;42.708;23.286;2023-12-22T04:24:56;33.53;;;18.63;;
79697;SDS011;69168;42.708;23.286;2023-12-22T04:27:21;36.00;;;18.42;;
79697;SDS011;69168;42.708;23.286;2023-12-22T04:29:47;37.28;;;19.15;;
79697;SDS011;69168;42.708;23.286;2023-12-22T04:32:13;36.03;;;17.35;;
79697;SDS011;69168;42.708;23.286;2023-12-22T04:34:38;38.08;;;21.50;;
79697;SDS011;69168;42.708;23.286;2023-12-22T04:37:04;38.67;;;20.65;;
79697;SDS011;69168;42.708;23.286;2023-12-22T04:39:29;35.33;;;19.20;;
79697;SDS011;69168;42.708;23.286;2023-12-22T04:41:55;37.40;;;20.23;;
79697;SDS011;69168;42.708;23.286;2023-12-22T04:44:20;41.92;;;21.67;;
79697;SDS011;69168;42.708;23.286;2023-12-22T04:46:46;36.10;;;20.83;;
79697;SDS011;69168;42.708;23.286;2023-12-22T04:49:11;37.25;;;20.58;;
79697;SDS011;69168;42.708;23.286;2023-12-22T04:51:37;40.00;;;21.73;;
79697;SDS011;69168;42.708;23.286;2023-12-22T04:54:02;38.53;;;20.55;;
79697;SDS011;69168;42.708;23.286;2023-12-22T04:56:28;34.65;;;17.00;;
79697;SDS011;69168;42.708;23.286;2023-12-22T04:58:53;39.78;;;20.70;;
79697;SDS011;69168;42.708;23.286;2023-12-22T05:01:19;31.77;;;17.27;;
79697;SDS011;69168;42.708;23.286;2023-12-22T05:03:45;36.30;;;18.88;;
79697;SDS011;69168;42.708;23.286;2023-12-22T05:06:11;27.23;;;14.75;;
79697;SDS011;69168;42.708;23.286;2023-12-22T05:08:37;34.03;;;17.05;;
79697;SDS011;69168;42.708;23.286;2023-12-22T05:11:02;31.05;;;15.98;;
79697;SDS011;69168;42.708;23.286;2023-12-22T05:13:30;30.13;;;15.90;;
79697;SDS011;69168;42.708;23.286;2023-12-22T05:15:56;29.80;;;15.30;;
79697;SDS011;69168;42.708;23.286;2023-12-22T05:18:21;28.63;;;13.55;;
79697;SDS011;69168;42.708;23.286;2023-12-22T05:20:47;32.38;;;15.00;;
79697;SDS011;69168;42.708;23.286;2023-12-22T05:23:12;26.02;;;13.82;;
79697;SDS011;69168;42.708;23.286;2023-12-22T05:25:38;26.02;;;14.68;;
79697;SDS011;69168;42.708;23.286;2023-12-22T05:28:03;27.85;;;15.40;;
79697;SDS011;69168;42.708;23.286;2023-12-22T05:30:29;23.30;;;13.30;;
79697;SDS011;69168;42.708;23.286;2023-12-22T05:32:54;28.85;;;15.18;;
79697;SDS011;69168;42.708;23.286;2023-12-22T05:35:20;22.20;;;12.02;;
79697;SDS011;69168;42.708;23.286;2023-12-22T05:37:49;23.48;;;11.82;;
79697;SDS011;69168;42.708;23.286;2023-12-22T05:40:14;20.60;;;10.98;;
79697;SDS011;69168;42.708;23.286;2023-12-22T05:42:40;19.70;;;10.82;;
79697;SDS011;69168;42.708;23.286;2023-12-22T05:45:05;11.73;;;7.60;;
79697;SDS011;69168;42.708;23.286;2023-12-22T05:47:32;15.27;;;8.48;;
79697;SDS011;69168;42.708;23.286;2023-12-22T05:49:58;16.13;;;8.80;;
79697;SDS011;69168;42.708;23.286;2023-12-22T05:52:24;17.88;;;9.07;;
79697;SDS011;69168;42.708;23.286;2023-12-22T05:54:50;15.70;;;8.70;;
79697;SDS011;69168;42.708;23.286;2023-12-22T05:57:15;19.70;;;9.93;;
79697;SDS011;69168;42.708;23.286;2023-12-22T05:59:42;19.10;;;10.00;;
79697;SDS011;69168;42.708;23.286;2023-12-22T06:02:07;20.30;;;11.20;;
79697;SDS011;69168;42.708;23.286;2023-12-22T06:04:33;23.83;;;11.07;;
79697;SDS011;69168;42.708;23.286;2023-12-22T06:07:00;24.27;;;11.88;;
79697;SDS011;69168;42.708;23.286;2023-12-22T06:09:25;26.80;;;13.27;;
79697;SDS011;69168;42.708;23.286;2023-12-22T06:11:51;21.98;;;12.52;;
79697;SDS011;69168;42.708;23.286;2023-12-22T06:14:17;26.88;;;12.90;;
79697;SDS011;69168;42.708;23.286;2023-12-22T06:16:42;21.27;;;12.38;;
79697;SDS011;69168;42.708;23.286;2023-12-22T06:19:08;26.60;;;13.13;;
79697;SDS011;69168;42.708;23.286;2023-12-22T06:21:37;26.42;;;13.45;;
79697;SDS011;69168;42.708;23.286;2023-12-22T06:24:03;23.60;;;11.68;;
79697;SDS011;69168;42.708;23.286;2023-12-22T06:26:28;23.50;;;13.05;;
79697;SDS011;69168;42.708;23.286;2023-12-22T06:28:56;22.88;;;12.63;;
79697;SDS011;69168;42.708;23.286;2023-12-22T06:31:22;20.40;;;10.10;;
79697;SDS011;69168;42.708;23.286;2023-12-22T06:33:48;21.40;;;9.40;;
79697;SDS011;69168;42.708;23.286;2023-12-22T06:36:21;15.73;;;8.13;;
79697;SDS011;69168;42.708;23.286;2023-12-22T06:38:47;15.57;;;9.02;;
79697;SDS011;69168;42.708;23.286;2023-12-22T06:41:23;15.20;;;8.45;;
79697;SDS011;69168;42.708;23.286;2023-12-22T06:43:51;14.50;;;7.68;;
79697;SDS011;69168;42.708;23.286;2023-12-22T06:46:17;16.17;;;9.05;;
79697;SDS011;69168;42.708;23.286;2023-12-22T06:48:44;21.80;;;10.00;;
79697;SDS011;69168;42.708;23.286;2023-12-22T06:51:19;17.92;;;9.20;;
79697;SDS011;69168;42.708;23.286;2023-12-22T06:53:46;17.35;;;8.35;;
79697;SDS011;69168;42.708;23.286;2023-12-22T06:56:15;17.67;;;8.30;;
79697;SDS011;69168;42.708;23.286;2023-12-22T06:58:49;18.33;;;9.20;;
79697;SDS011;69168;42.708;23.286;2023-12-22T07:01:18;19.08;;;9.80;;
79697;SDS011;69168;42.708;23.286;2023-12-22T07:03:45;17.35;;;10.00;;
79697;SDS011;69168;42.708;23.286;2023-12-22T07:06:16;19.20;;;10.05;;
79697;SDS011;69168;42.708;23.286;2023-12-22T07:08:43;19.48;;;10.65;;
79697;SDS011;69168;42.708;23.286;2023-12-22T07:11:09;19.23;;;9.95;;
79697;SDS011;69168;42.708;23.286;2023-12-22T07:13:36;18.02;;;9.60;;
79697;SDS011;69168;42.708;23.286;2023-12-22T07:16:03;18.25;;;9.57;;
79697;SDS011;69168;42.708;23.286;2023-12-22T07:18:30;19.95;;;10.77;;
79697;SDS011;69168;42.708;23.286;2023-12-22T07:20:59;20.83;;;10.30;;
79697;SDS011;69168;42.708;23.286;2023-12-22T07:23:25;16.95;;;9.43;;
79697;SDS011;69168;42.708;23.286;2023-12-22T07:25:51;20.88;;;11.00;;
79697;SDS011;69168;42.708;23.286;2023-12-22T07:28:16;19.77;;;9.82;;
79697;SDS011;69168;42.708;23.286;2023-12-22T07:30:42;23.50;;;11.98;;
79697;SDS011;69168;42.708;23.286;2023-12-22T07:33:07;23.50;;;11.80;;
79697;SDS011;69168;42.708;23.286;2023-12-22T07:35:36;21.52;;;11.65;;
79697;SDS011;69168;42.708;23.286;2023-12-22T07:38:01;30.35;;;14.35;;
79697;SDS011;69168;42.708;23.286;2023-12-22T07:40:31;22.38;;;11.63;;
79697;SDS011;69168;42.708;23.286;2023-12-22T07:42:59;18.85;;;10.85;;
79697;SDS011;69168;42.708;23.286;2023-12-22T07:45:25;21.77;;;10.88;;
79697;SDS011;69168;42.708;23.286;2023-12-22T07:47:50;21.15;;;12.00;;
79697;SDS011;69168;42.708;23.286;2023-12-22T07:50:16;23.95;;;13.35;;
79697;SDS011;69168;42.708;23.286;2023-12-22T07:52:41;24.15;;;11.93;;
79697;SDS011;69168;42.708;23.286;2023-12-22T07:55:09;29.80;;;16.38;;
79697;SDS011;69168;42.708;23.286;2023-12-22T07:57:35;28.25;;;16.42;;
79697;SDS011;69168;42.708;23.286;2023-12-22T08:00:02;28.17;;;14.73;;
79697;SDS011;69168;42.708;23.286;2023-12-22T08:02:28;26.92;;;15.15;;
79697;SDS011;69168;42.708;23.286;2023-12-22T08:04:54;26.77;;;15.32;;
79697;SDS011;69168;42.708;23.286;2023-12-22T08:07:19;26.48;;;14.57;;
79697;SDS011;69168;42.708;23.286;2023-12-22T08:09:45;27.90;;;15.90;;
79697;SDS011;69168;42.708;23.286;2023-12-22T08:12:10;29.20;;;16.10;;
79697;SDS011;69168;42.708;23.286;2023-12-22T08:14:36;25.02;;;15.63;;
79697;SDS011;69168;42.708;23.286;2023-12-22T08:17:01;25.48;;;15.07;;
79697;SDS011;69168;42.708;23.286;2023-12-22T08:19:27;26.42;;;14.10;;
79697;SDS011;69168;42.708;23.286;2023-12-22T08:21:53;28.08;;;16.17;;
79697;SDS011;69168;42.708;23.286;2023-12-22T08:24:19;25.30;;;14.52;;
79697;SDS011;69168;42.708;23.286;2023-12-22T08:26:45;24.52;;;14.18;;
79697;SDS011;69168;42.708;23.286;2023-12-22T08:29:10;22.33;;;14.00;;
79697;SDS011;69168;42.708;23.286;2023-12-22T08:31:36;26.70;;;13.82;;
79697;SDS011;69168;42.708;23.286;2023-12-22T08:34:02;27.67;;;15.13;;
79697;SDS011;69168;42.708;23.286;2023-12-22T08:36:27;24.10;;;13.75;;
79697;SDS011;69168;42.708;23.286;2023-12-22T08:38:53;12.80;;;7.22;;
79697;SDS011;69168;42.708;23.286;2023-12-22T08:41:18;15.20;;;8.48;;
79697;SDS011;69168;42.708;23.286;2023-12-22T08:43:44;17.10;;;8.88;;
79697;SDS011;69168;42.708;23.286;2023-12-22T08:46:09;20.05;;;8.43;;
79697;SDS011;69168;42.708;23.286;2023-12-22T08:48:35;15.30;;;8.15;;
79697;SDS011;69168;42.708;23.286;2023-12-22T08:51:01;20.65;;;8.48;;
79697;SDS011;69168;42.708;23.286;2023-12-22T08:53:26;15.15;;;8.82;;
79697;SDS011;69168;42.708;23.286;2023-12-22T08:55:55;15.95;;;8.63;;
79697;SDS011;69168;42.708;23.286;2023-12-22T08:58:21;16.52;;;8.25;;
79697;SDS011;69168;42.708;23.286;2023-12-22T09:00:47;15.68;;;8.07;;
79697;SDS011;69168;42.708;23.286;2023-12-22T09:03:13;26.02;;;9.98;;
79697;SDS011;69168;42.708;23.286;2023-12-22T09:05:38;16.98;;;8.40;;
79697;SDS011;69168;42.708;23.286;2023-12-22T09:08:04;17.38;;;7.55;;
79697;SDS011;69168;42.708;23.286;2023-12-22T09:10:31;17.25;;;8.40;;
79697;SDS011;69168;42.708;23.286;2023-12-22T09:12:57;10.30;;;6.53;;
79697;SDS011;69168;42.708;23.286;2023-12-22T09:15:23;12.48;;;6.82;;
79697;SDS011;69168;42.708;23.286;2023-12-22T09:17:48;18.35;;;9.00;;
79697;SDS011;69168;42.708;23.286;2023-12-22T09:20:17;18.00;;;8.73;;
79697;SDS011;69168;42.708;23.286;2023-12-22T09:22:43;12.63;;;6.75;;
79697;SDS011;69168;42.708;23.286;2023-12-22T09:25:08;13.98;;;6.40;;
79697;SDS011;69168;42.708;23.286;2023-12-22T09:27:37;13.57;;;7.40;;
79697;SDS011;69168;42.708;23.286;2023-12-22T09:30:03;14.20;;;6.82;;
79697;SDS011;69168;42.708;23.286;2023-12-22T09:32:32;14.65;;;6.00;;
79697;SDS011;69168;42.708;23.286;2023-12-22T09:34:57;11.88;;;6.13;;
79697;SDS011;69168;42.708;23.286;2023-12-22T09:37:25;10.77;;;6.47;;
79697;SDS011;69168;42.708;23.286;2023-12-22T09:39:50;12.73;;;6.45;;
79697;SDS011;69168;42.708;23.286;2023-12-22T09:42:16;13.48;;;6.72;;
79697;SDS011;69168;42.708;23.286;2023-12-22T09:44:42;15.27;;;6.93;;
79697;SDS011;69168;42.708;23.286;2023-12-22T09:47:08;16.48;;;8.40;;
79697;SDS011;69168;42.708;23.286;2023-12-22T09:49:35;16.23;;;7.65;;
79697;SDS011;69168;42.708;23.286;2023-12-22T09:52:01;17.10;;;7.97;;
79697;SDS011;69168;42.708;23.286;2023-12-22T09:54:31;14.50;;;8.07;;
79697;SDS011;69168;42.708;23.286;2023-12-22T09:56:59;16.38;;;8.07;;
79697;SDS011;69168;42.708;23.286;2023-12-22T09:59:26;13.23;;;7.43;;
79697;SDS011;69168;42.708;23.286;2023-12-22T10:01:53;15.25;;;8.52;;
79697;SDS011;69168;42.708;23.286;2023-12-22T10:04:20;16.88;;;8.85;;
79697;SDS011;69168;42.708;23.286;2023-12-22T10:06:46;21.33;;;11.05;;
79697;SDS011;69168;42.708;23.286;2023-12-22T10:09:13;17.52;;;9.57;;
79697;SDS011;69168;42.708;23.286;2023-12-22T10:11:41;13.68;;;7.82;;
79697;SDS011;69168;42.708;23.286;2023-12-22T10:14:08;19.38;;;10.90;;
79697;SDS011;69168;42.708;23.286;2023-12-22T10:16:35;18.33;;;9.18;;
79697;SDS011;69168;42.708;23.286;2023-12-22T10:19:02;17.80;;;9.40;;
79697;SDS011;69168;42.708;23.286;2023-12-22T10:21:28;14.40;;;7.93;;
79697;SDS011;69168;42.708;23.286;2023-12-22T10:26:21;9.65;;;5.50;;
79697;SDS011;69168;42.708;23.286;2023-12-22T10:28:50;10.52;;;5.72;;
79697;SDS011;69168;42.708;23.286;2023-12-22T10:31:17;12.27;;;6.35;;
79697;SDS011;69168;42.708;23.286;2023-12-22T10:33:43;8.23;;;4.75;;
79697;SDS011;69168;42.708;23.286;2023-12-22T10:36:08;9.63;;;5.00;;
79697;SDS011;69168;42.708;23.286;2023-12-22T10:38:35;9.43;;;4.38;;
79697;SDS011;69168;42.708;23.286;2023-12-22T10:41:02;9.45;;;4.60;;
79697;SDS011;69168;42.708;23.286;2023-12-22T10:43:30;7.85;;;4.68;;
79697;SDS011;69168;42.708;23.286;2023-12-22T10:45:56;6.22;;;4.05;;
79697;SDS011;69168;42.708;23.286;2023-12-22T10:48:24;15.00;;;7.07;;
79697;SDS011;69168;42.708;23.286;2023-12-22T10:50:53;9.65;;;5.25;;
79697;SDS011;69168;42.708;23.286;2023-12-22T10:53:20;9.35;;;4.72;;
79697;SDS011;69168;42.708;23.286;2023-12-22T10:55:46;10.77;;;5.90;;
79697;SDS011;69168;42.708;23.286;2023-12-22T10:58:15;7.55;;;3.78;;
79697;SDS011;69168;42.708;23.286;2023-12-22T11:00:41;7.47;;;4.10;;
79697;SDS011;69168;42.708;23.286;2023-12-22T11:03:10;8.20;;;4.68;;
79697;SDS011;69168;42.708;23.286;2023-12-22T11:05:41;7.60;;;4.72;;
79697;SDS011;69168;42.708;23.286;2023-12-22T11:08:11;9.00;;;5.03;;
79697;SDS011;69168;42.708;23.286;2023-12-22T11:10:38;9.13;;;4.93;;
79697;SDS011;69168;42.708;23.286;2023-12-22T11:13:07;8.77;;;5.00;;
79697;SDS011;69168;42.708;23.286;2023-12-22T11:15:34;8.73;;;5.00;;
79697;SDS011;69168;42.708;23.286;2023-12-22T11:18:01;7.05;;;4.43;;
79697;SDS011;69168;42.708;23.286;2023-12-22T11:20:27;4.47;;;2.35;;
79697;SDS011;69168;42.708;23.286;2023-12-22T11:22:57;3.92;;;2.58;;
79697;SDS011;69168;42.708;23.286;2023-12-22T11:27:50;2.13;;;1.80;;
79697;SDS011;69168;42.708;23.286;2023-12-22T11:30:18;3.33;;;1.83;;
79697;SDS011;69168;42.708;23.286;2023-12-22T11:32:45;2.72;;;1.80;;
79697;SDS011;69168;42.708;23.286;2023-12-22T11:35:14;4.25;;;2.03;;
79697;SDS011;69168;42.708;23.286;2023-12-22T11:37:40;3.35;;;2.45;;
79697;SDS011;69168;42.708;23.286;2023-12-22T11:40:07;4.10;;;1.95;;
79697;SDS011;69168;42.708;23.286;2023-12-22T11:42:41;2.95;;;1.90;;
79697;SDS011;69168;42.708;23.286;2023-12-22T11:45:11;3.35;;;1.27;;
79697;SDS011;69168;42.708;23.286;2023-12-22T11:47:38;1.88;;;1.48;;
79697;SDS011;69168;42.708;23.286;2023-12-22T11:50:08;1.98;;;1.25;;
79697;SDS011;69168;42.708;23.286;2023-12-22T11:52:35;2.40;;;1.30;;
79697;SDS011;69168;42.708;23.286;2023-12-22T11:55:01;3.00;;;1.50;;
79697;SDS011;69168;42.708;23.286;2023-12-22T11:59:56;1.95;;;1.20;;
79697;SDS011;69168;42.708;23.286;2023-12-22T12:02:23;2.50;;;1.30;;
79697;SDS011;69168;42.708;23.286;2023-12-22T12:04:48;2.15;;;1.23;;
79697;SDS011;69168;42.708;23.286;2023-12-22T12:13:04;3.13;;;1.30;;
79697;SDS011;69168;42.708;23.286;2023-12-22T12:15:34;2.53;;;1.30;;
79697;SDS011;69168;42.708;23.286;2023-12-22T12:18:00;1.77;;;1.10;;
79697;SDS011;69168;42.708;23.286;2023-12-22T12:20:26;1.75;;;0.98;;
79697;SDS011;69168;42.708;23.286;2023-12-22T12:22:52;1.35;;;1.20;;
79697;SDS011;69168;42.708;23.286;2023-12-22T12:25:19;2.08;;;1.42;;
79697;SDS011;69168;42.708;23.286;2023-12-22T12:27:50;1.98;;;1.10;;
79697;SDS011;69168;42.708;23.286;2023-12-22T12:30:25;2.72;;;1.60;;
79697;SDS011;69168;42.708;23.286;2023-12-22T12:32:51;1.95;;;1.25;;
79697;SDS011;69168;42.708;23.286;2023-12-22T12:35:18;3.58;;;1.38;;
79697;SDS011;69168;42.708;23.286;2023-12-22T12:37:44;1.52;;;1.10;;
79697;SDS011;69168;42.708;23.286;2023-12-22T12:40:13;1.95;;;1.13;;
79697;SDS011;69168;42.708;23.286;2023-12-22T12:42:42;4.47;;;1.88;;
79697;SDS011;69168;42.708;23.286;2023-12-22T12:45:08;3.85;;;1.77;;
79697;SDS011;69168;42.708;23.286;2023-12-22T12:47:34;2.58;;;0.70;;
79697;SDS011;69168;42.708;23.286;2023-12-22T12:50:00;1.73;;;1.10;;
79697;SDS011;69168;42.708;23.286;2023-12-22T12:52:26;1.25;;;0.70;;
79697;SDS011;69168;42.708;23.286;2023-12-22T12:54:52;1.20;;;0.88;;
79697;SDS011;69168;42.708;23.286;2023-12-22T12:57:18;1.10;;;0.90;;
79697;SDS011;69168;42.708;23.286;2023-12-22T12:59:47;2.70;;;1.52;;
79697;SDS011;69168;42.708;23.286;2023-12-22T13:02:17;4.53;;;1.85;;
79697;SDS011;69168;42.708;23.286;2023-12-22T13:04:44;4.03;;;2.13;;
79697;SDS011;69168;42.708;23.286;2023-12-22T13:07:13;2.20;;;1.38;;
79697;SDS011;69168;42.708;23.286;2023-12-22T13:09:39;2.97;;;1.80;;
79697;SDS011;69168;42.708;23.286;2023-12-22T13:12:04;1.80;;;1.52;;
79697;SDS011;69168;42.708;23.286;2023-12-22T13:14:30;2.08;;;1.20;;
79697;SDS011;69168;42.708;23.286;2023-12-22T13:16:57;3.00;;;1.50;;
79697;SDS011;69168;42.708;23.286;2023-12-22T13:19:23;3.35;;;1.70;;
79697;SDS011;69168;42.708;23.286;2023-12-22T13:21:52;1.60;;;1.02;;
79697;SDS011;69168;42.708;23.286;2023-12-22T13:24:19;1.13;;;0.75;;
79697;SDS011;69168;42.708;23.286;2023-12-22T13:26:44;2.80;;;1.10;;
79697;SDS011;69168;42.708;23.286;2023-12-22T13:29:11;1.92;;;1.15;;
79697;SDS011;69168;42.708;23.286;2023-12-22T13:31:38;2.42;;;1.40;;
79697;SDS011;69168;42.708;23.286;2023-12-22T13:34:12;3.75;;;2.38;;
79697;SDS011;69168;42.708;23.286;2023-12-22T13:36:38;3.67;;;2.13;;
79697;SDS011;69168;42.708;23.286;2023-12-22T13:39:05;3.03;;;2.33;;
79697;SDS011;69168;42.708;23.286;2023-12-22T13:41:32;5.32;;;2.75;;
79697;SDS011;69168;42.708;23.286;2023-12-22T13:44:02;3.83;;;2.10;;
79697;SDS011;69168;42.708;23.286;2023-12-22T13:46:29;4.63;;;2.63;;
79697;SDS011;69168;42.708;23.286;2023-12-22T13:48:54;2.83;;;2.05;;
79697;SDS011;69168;42.708;23.286;2023-12-22T13:51:20;2.85;;;2.00;;
79697;SDS011;69168;42.708;23.286;2023-12-22T13:53:46;3.78;;;1.77;;
79697;SDS011;69168;42.708;23.286;2023-12-22T13:56:15;3.42;;;1.88;;
79697;SDS011;69168;42.708;23.286;2023-12-22T13:58:44;3.22;;;2.00;;
79697;SDS011;69168;42.708;23.286;2023-12-22T14:01:14;5.13;;;2.00;;
79697;SDS011;69168;42.708;23.286;2023-12-22T14:03:41;5.05;;;1.83;;
79697;SDS011;69168;42.708;23.286;2023-12-22T14:06:07;3.45;;;2.25;;
79697;SDS011;69168;42.708;23.286;2023-12-22T14:08:34;3.80;;;1.92;;
79697;SDS011;69168;42.708;23.286;2023-12-22T14:11:00;3.50;;;2.22;;
79697;SDS011;69168;42.708;23.286;2023-12-22T14:13:26;5.05;;;1.98;;
79697;SDS011;69168;42.708;23.286;2023-12-22T14:15:52;3.03;;;1.40;;
79697;SDS011;69168;42.708;23.286;2023-12-22T14:18:18;4.30;;;1.75;;
79697;SDS011;69168;42.708;23.286;2023-12-22T14:20:43;2.30;;;1.80;;
79697;SDS011;69168;42.708;23.286;2023-12-22T14:23:11;3.08;;;2.00;;
79697;SDS011;69168;42.708;23.286;2023-12-22T14:25:43;4.53;;;1.83;;
79697;SDS011;69168;42.708;23.286;2023-12-22T14:28:09;3.72;;;2.20;;
79697;SDS011;69168;42.708;23.286;2023-12-22T14:30:36;5.43;;;2.60;;
79697;SDS011;69168;42.708;23.286;2023-12-22T14:33:02;3.15;;;1.60;;